createdAt,value
2022-10-21T00:01:09.660Z,96.92
2022-10-21T00:03:38.511Z,97.22
2022-10-21T00:06:07.348Z,96.92
2022-10-21T00:08:36.436Z,97.26
2022-10-21T00:11:08.184Z,97.36
2022-10-21T00:13:39.693Z,97.43
2022-10-21T00:16:10.656Z,96.85
2022-10-21T00:18:40.779Z,97.07
2022-10-21T00:21:10.571Z,97.11
2022-10-21T00:23:39.168Z,97.48
2022-10-21T00:26:09.494Z,97.24
2022-10-21T00:28:37.897Z,97.29
2022-10-21T00:31:08.849Z,97.27
2022-10-21T00:33:37.980Z,97.09
2022-10-21T00:36:08.171Z,97.37
2022-10-21T00:38:37.128Z,97.05
2022-10-21T00:41:05.351Z,97.24
2022-10-21T00:43:34.827Z,97.43
2022-10-21T00:46:07.802Z,97.07
2022-10-21T00:48:39.792Z,97.62
2022-10-21T00:51:12.685Z,97.00
2022-10-21T00:53:46.366Z,97.10
2022-10-21T00:56:20.224Z,97.49
2022-10-21T00:58:51.167Z,97.06
2022-10-21T01:01:21.574Z,96.97
2022-10-21T01:03:51.479Z,96.93
2022-10-21T01:06:24.561Z,97.35
2022-10-21T01:08:55.389Z,97.33
2022-10-21T01:11:25.441Z,96.95
2022-10-21T01:14:15.999Z,97.35
2022-10-21T01:16:49.598Z,97.14
2022-10-21T01:19:45.153Z,97.33
2022-10-21T01:22:26.941Z,96.93
2022-10-21T01:25:36.691Z,97.21
2022-10-21T01:28:19.138Z,97.00
2022-10-21T01:30:53.883Z,96.63
2022-10-21T01:33:42.366Z,96.67
2022-10-21T01:36:30.001Z,96.57
2022-10-21T01:39:13.966Z,96.92
2022-10-21T01:41:47.915Z,97.32
2022-10-21T01:44:24.174Z,97.33
2022-10-21T01:46:59.943Z,97.26
2022-10-21T01:49:33.471Z,97.40
2022-10-21T01:52:03.837Z,97.30
2022-10-21T01:54:36.671Z,97.03
2022-10-21T01:57:07.704Z,97.46
2022-10-21T01:59:37.087Z,97.33
2022-10-21T02:02:09.161Z,97.09
2022-10-21T02:04:40.350Z,97.35
2022-10-21T02:07:09.258Z,97.39
2022-10-21T02:09:37.372Z,97.45
2022-10-21T02:12:07.814Z,97.63
2022-10-21T02:14:42.136Z,97.35
2022-10-21T02:17:15.950Z,97.77
2022-10-21T02:19:44.244Z,97.65
2022-10-21T02:22:17.272Z,97.37
2022-10-21T02:24:52.573Z,97.50
2022-10-21T02:27:21.502Z,97.67
2022-10-21T02:29:54.532Z,97.67
2022-10-21T02:32:32.989Z,97.77
2022-10-21T02:35:18.390Z,97.82
2022-10-21T02:37:53.671Z,97.85
2022-10-21T02:40:27.878Z,98.10
2022-10-21T02:43:00.817Z,97.99
2022-10-21T02:45:28.958Z,97.62
2022-10-21T02:47:58.431Z,98.46
2022-10-21T02:50:26.969Z,98.07
2022-10-21T02:52:55.090Z,97.93
2022-10-21T02:55:23.247Z,98.19
2022-10-21T02:57:51.443Z,98.08
2022-10-21T03:00:19.861Z,97.71
2022-10-21T03:02:47.937Z,97.50
2022-10-21T03:05:17.685Z,97.33
2022-10-21T03:07:45.886Z,97.73
2022-10-21T03:10:14.047Z,98.01
2022-10-21T03:12:42.114Z,98.53
2022-10-21T03:15:11.563Z,98.49
2022-10-21T03:17:39.914Z,98.34
2022-10-21T03:20:09.150Z,98.47
2022-10-21T03:22:38.562Z,97.75
2022-10-21T03:25:08.359Z,98.13
2022-10-21T03:27:36.485Z,97.84
2022-10-21T03:30:06.346Z,97.78
2022-10-21T03:32:34.639Z,98.19
2022-10-21T03:35:02.804Z,97.91
2022-10-21T03:37:30.918Z,98.54
2022-10-21T03:40:02.076Z,98.29
2022-10-21T03:42:30.166Z,98.25
2022-10-21T03:44:58.383Z,97.58
2022-10-21T03:47:26.655Z,98.15
2022-10-21T03:49:54.714Z,97.62
2022-10-21T03:52:22.770Z,97.79
2022-10-21T03:54:50.884Z,97.39
2022-10-21T03:57:20.299Z,98.06
2022-10-21T03:59:48.427Z,97.50
2022-10-21T04:02:16.501Z,97.86
2022-10-21T04:04:44.619Z,97.63
2022-10-21T04:07:12.772Z,97.80
2022-10-21T04:09:41.067Z,98.25
2022-10-21T04:12:09.201Z,98.38
2022-10-21T04:14:38.875Z,98.18
2022-10-21T04:17:07.838Z,98.70
2022-10-21T04:19:36.223Z,98.30
2022-10-21T04:22:04.470Z,98.66
2022-10-21T04:24:32.563Z,98.69
2022-10-21T04:27:00.704Z,98.32
2022-10-21T04:29:28.831Z,98.25
2022-10-21T04:31:58.666Z,98.16
2022-10-21T04:34:26.914Z,98.48
2022-10-21T04:36:55.044Z,98.49
2022-10-21T04:39:23.147Z,97.94
2022-10-21T04:41:52.880Z,98.29
2022-10-21T04:44:21.064Z,97.98
2022-10-21T04:46:49.246Z,97.47
2022-10-21T04:49:18.941Z,98.31
2022-10-21T04:51:47.104Z,97.66
2022-10-21T04:54:15.477Z,97.29
2022-10-21T04:56:44.046Z,97.38
2022-10-21T04:59:12.455Z,98.08
2022-10-21T05:01:40.541Z,97.95
2022-10-21T05:04:08.936Z,98.13
2022-10-21T05:06:38.438Z,98.21
2022-10-21T05:09:06.616Z,98.49
2022-10-21T05:11:34.863Z,98.10
2022-10-21T05:14:03.513Z,98.42
2022-10-21T05:16:31.684Z,98.42
2022-10-21T05:19:00.483Z,98.87
2022-10-21T05:21:28.738Z,98.57
2022-10-21T05:23:58.232Z,98.30
2022-10-21T05:26:28.815Z,98.29
2022-10-21T05:28:56.971Z,98.66
2022-10-21T05:31:25.307Z,98.45
2022-10-21T05:33:53.412Z,99.17
2022-10-21T05:36:23.973Z,98.56
2022-10-21T05:38:52.883Z,98.31
2022-10-21T05:41:22.620Z,98.69
2022-10-21T05:43:50.689Z,98.62
2022-10-21T05:46:18.837Z,99.37
2022-10-21T05:51:25.439Z,98.78
2022-10-21T05:53:54.107Z,98.87
2022-10-21T05:56:24.147Z,99.20
2022-10-21T05:58:52.494Z,99.05
2022-10-21T06:01:20.674Z,98.66
2022-10-21T06:03:48.766Z,98.68
2022-10-21T06:06:16.810Z,99.09
2022-10-21T06:08:44.956Z,99.10
2022-10-21T06:11:16.289Z,99.33
2022-10-21T06:13:47.116Z,99.25
2022-10-21T06:16:16.236Z,98.61
2022-10-21T06:18:44.713Z,98.43
2022-10-21T06:21:13.188Z,98.38
2022-10-21T06:23:41.495Z,98.54
2022-10-21T06:26:13.195Z,98.78
2022-10-21T06:28:43.744Z,98.50
2022-10-21T06:31:16.692Z,98.52
2022-10-21T06:33:45.243Z,98.49
2022-10-21T06:36:13.297Z,98.88
2022-10-21T06:38:41.493Z,98.38
2022-10-21T06:41:13.652Z,98.61
2022-10-21T06:43:42.590Z,98.98
2022-10-21T06:46:16.151Z,98.80
2022-10-21T06:48:44.443Z,99.07
2022-10-21T06:51:16.046Z,98.62
2022-10-21T06:53:44.693Z,98.80
2022-10-21T06:56:16.475Z,98.69
2022-10-21T06:58:46.475Z,98.58
2022-10-21T07:01:33.529Z,98.27
2022-10-21T07:04:07.351Z,98.81
2022-10-21T07:06:35.852Z,99.16
2022-10-21T07:09:04.489Z,99.05
2022-10-21T07:11:32.853Z,98.91
2022-10-21T07:14:02.282Z,98.88
2022-10-21T07:16:34.423Z,98.71
2022-10-21T07:19:02.848Z,99.03
2022-10-21T07:21:32.620Z,99.12
2022-10-21T07:24:01.779Z,98.37
2022-10-21T07:26:32.528Z,98.67
2022-10-21T07:29:01.178Z,98.48
2022-10-21T07:31:36.408Z,99.10
2022-10-21T07:34:06.464Z,98.56
2022-10-21T07:36:38.021Z,99.14
2022-10-21T07:39:10.013Z,99.20
2022-10-21T07:41:42.069Z,99.21
2022-10-21T07:44:11.389Z,99.06
2022-10-21T07:46:42.583Z,99.08
2022-10-21T07:49:12.634Z,99.33
2022-10-21T07:51:41.095Z,99.29
2022-10-21T07:54:10.280Z,99.18
2022-10-21T07:56:42.964Z,99.58
2022-10-21T07:59:13.242Z,99.76
2022-10-21T08:01:45.832Z,99.57
2022-10-21T08:04:16.594Z,100.00
2022-10-21T08:06:46.104Z,99.98
2022-10-21T08:09:14.625Z,99.87
2022-10-21T08:11:42.978Z,100.00
2022-10-21T08:14:11.847Z,99.74
2022-10-21T08:16:41.900Z,100.00
2022-10-21T08:19:11.389Z,99.77
2022-10-21T08:21:39.551Z,99.83
2022-10-21T08:24:08.171Z,99.80
2022-10-21T08:26:36.334Z,100.00
2022-10-21T08:29:05.190Z,100.00
2022-10-21T08:31:33.295Z,99.47
2022-10-21T08:34:03.098Z,99.71
2022-10-21T08:36:31.251Z,99.71
2022-10-21T08:38:59.842Z,100.00
2022-10-21T08:42:02.861Z,100.00
2022-10-21T08:44:56.973Z,100.00
2022-10-21T08:47:37.309Z,99.85
2022-10-21T08:50:19.414Z,99.97
2022-10-21T08:52:51.387Z,99.93
2022-10-21T08:55:24.412Z,99.88
2022-10-21T08:57:54.606Z,99.70
2022-10-21T09:00:26.432Z,99.67
2022-10-21T09:03:08.482Z,99.45
2022-10-21T09:06:13.917Z,99.49
2022-10-21T09:09:05.629Z,99.65
2022-10-21T09:11:57.388Z,99.09
2022-10-21T09:14:57.257Z,99.18
2022-10-21T09:18:02.048Z,98.92
2022-10-21T09:20:52.137Z,98.96
2022-10-21T09:23:54.814Z,98.63
2022-10-21T09:26:37.685Z,98.96
2022-10-21T09:29:30.622Z,98.78
2022-10-21T09:32:12.696Z,98.78
2022-10-21T09:34:54.898Z,99.09
2022-10-21T09:37:35.382Z,99.14
2022-10-21T09:40:17.831Z,99.32
2022-10-21T09:42:47.837Z,99.15
2022-10-21T09:45:25.098Z,99.00
2022-10-21T09:47:59.554Z,98.81
2022-10-21T09:50:29.243Z,99.02
2022-10-21T09:53:06.985Z,98.51
2022-10-21T09:55:35.249Z,98.49
2022-10-21T09:58:05.414Z,98.03
2022-10-21T10:00:49.033Z,97.83
2022-10-21T10:03:36.334Z,98.11
2022-10-21T10:06:06.499Z,97.94
2022-10-21T10:08:40.012Z,97.80
2022-10-21T10:11:21.704Z,97.43
2022-10-21T10:13:53.052Z,97.12
2022-10-21T10:16:27.190Z,96.73
2022-10-21T10:19:13.204Z,96.53
2022-10-21T10:21:41.351Z,96.00
2022-10-21T10:24:18.890Z,95.58
2022-10-21T10:26:48.343Z,95.02
2022-10-21T10:29:26.820Z,94.96
2022-10-21T10:31:57.786Z,94.25
2022-10-21T10:34:31.856Z,93.88
2022-10-21T10:37:09.697Z,93.70
2022-10-21T10:39:41.071Z,93.30
2022-10-21T10:42:09.545Z,92.83
2022-10-21T10:44:41.019Z,92.50
2022-10-21T10:47:20.961Z,92.21
2022-10-21T10:49:49.644Z,91.51
2022-10-21T10:52:24.358Z,90.54
2022-10-21T10:55:19.857Z,90.58
2022-10-21T10:58:06.164Z,90.08
2022-10-21T11:00:43.806Z,89.61
2022-10-21T11:03:18.714Z,88.93
2022-10-21T11:05:52.193Z,88.33
2022-10-21T11:08:33.938Z,87.86
2022-10-21T11:11:08.495Z,88.14
2022-10-21T11:13:42.089Z,87.53
2022-10-21T11:16:27.275Z,86.86
2022-10-21T11:19:04.415Z,86.24
2022-10-21T11:21:46.341Z,86.22
2022-10-21T11:25:02.661Z,86.18
2022-10-21T11:27:55.600Z,85.75
2022-10-21T11:30:31.153Z,85.14
2022-10-21T11:33:13.551Z,84.91
2022-10-21T11:35:57.813Z,84.76
2022-10-21T11:38:48.734Z,84.92
2022-10-21T11:41:30.825Z,84.11
2022-10-21T11:44:16.291Z,84.16
2022-10-21T11:46:57.337Z,83.83
2022-10-21T11:49:42.727Z,83.75
2022-10-21T11:52:25.300Z,83.33
2022-10-21T11:55:32.061Z,83.28
2022-10-21T11:58:15.918Z,82.73
2022-10-21T12:00:55.414Z,82.21
2022-10-21T12:03:48.662Z,82.49
2022-10-21T12:06:30.269Z,82.07
2022-10-21T12:09:02.863Z,81.76
2022-10-21T12:11:39.915Z,81.63
2022-10-21T12:14:30.183Z,81.35
2022-10-21T12:17:04.348Z,81.43
2022-10-21T12:19:33.035Z,81.26
2022-10-21T12:22:01.662Z,80.91
2022-10-21T12:24:44.879Z,81.19
2022-10-21T12:27:23.060Z,80.83
2022-10-21T12:30:04.362Z,80.96
2022-10-21T12:32:44.831Z,81.37
2022-10-21T12:35:21.216Z,81.16
2022-10-21T12:38:22.380Z,80.93
2022-10-21T12:40:51.948Z,81.13
2022-10-21T12:43:27.165Z,80.87
2022-10-21T12:46:08.288Z,81.09
2022-10-21T12:48:44.212Z,80.85
2022-10-21T12:51:21.282Z,80.66
2022-10-21T12:53:53.572Z,81.20
2022-10-21T12:56:32.396Z,80.96
2022-10-21T12:59:04.385Z,80.79
2022-10-21T13:01:43.613Z,80.92
2022-10-21T13:04:48.704Z,81.11
2022-10-21T13:07:40.829Z,80.74
2022-10-21T13:10:28.458Z,80.76
2022-10-21T13:13:39.294Z,80.59
2022-10-21T13:16:41.966Z,80.41
2022-10-21T13:19:35.044Z,81.10
2022-10-21T13:22:12.932Z,80.76
2022-10-21T13:24:42.718Z,80.78
2022-10-21T13:27:28.948Z,80.83
2022-10-21T13:29:58.065Z,80.82
2022-10-21T13:32:30.083Z,80.74
2022-10-21T13:35:22.980Z,80.86
2022-10-21T13:37:58.095Z,81.06
2022-10-21T13:40:33.001Z,81.17
2022-10-21T13:43:04.478Z,81.23
2022-10-21T13:45:37.181Z,81.20
2022-10-21T13:48:09.005Z,81.04
2022-10-21T13:50:42.082Z,81.07
2022-10-21T13:53:29.549Z,80.69
2022-10-21T13:56:01.387Z,80.74
2022-10-21T13:58:36.097Z,80.87
2022-10-21T14:01:12.983Z,81.00
2022-10-21T14:03:42.279Z,81.24
2022-10-21T14:06:13.439Z,81.56
2022-10-21T14:08:46.940Z,81.39
2022-10-21T14:11:21.139Z,81.12
2022-10-21T14:13:51.512Z,81.21
2022-10-21T14:16:30.480Z,81.02
2022-10-21T14:18:59.461Z,81.50
2022-10-21T14:21:32.250Z,81.41
2022-10-21T14:24:01.917Z,81.31
2022-10-21T14:26:32.983Z,81.41
2022-10-21T14:29:02.529Z,81.31
2022-10-21T14:31:31.019Z,81.23
2022-10-21T14:33:59.461Z,81.64
2022-10-21T14:36:28.681Z,81.95
2022-10-21T14:39:03.016Z,81.59
2022-10-21T14:41:35.516Z,81.90
2022-10-21T14:44:13.082Z,81.93
2022-10-21T14:46:44.054Z,82.04
2022-10-21T14:49:24.203Z,82.18
2022-10-21T14:51:59.376Z,82.51
2022-10-21T14:54:38.607Z,83.06
2022-10-21T14:57:06.825Z,82.98
2022-10-21T14:59:40.776Z,82.86
2022-10-21T15:02:20.377Z,83.32
2022-10-21T15:04:53.971Z,83.09
2022-10-21T15:07:30.474Z,83.14
2022-10-21T15:10:19.377Z,82.96
2022-10-21T15:12:51.393Z,83.18
2022-10-21T15:15:53.275Z,83.32
2022-10-21T15:18:25.283Z,83.47
2022-10-21T15:20:57.305Z,83.32
2022-10-21T15:23:30.832Z,83.51
2022-10-21T15:26:05.641Z,83.75
2022-10-21T15:28:36.543Z,83.89
2022-10-21T15:31:10.567Z,83.72
2022-10-21T15:33:38.653Z,84.00
2022-10-21T15:36:09.492Z,84.15
2022-10-21T15:38:38.321Z,84.24
2022-10-21T15:41:10.629Z,84.06
2022-10-21T15:43:38.748Z,84.14
2022-10-21T15:46:07.332Z,84.39
2022-10-21T15:48:35.791Z,84.43
2022-10-21T15:51:03.947Z,84.59
2022-10-21T15:53:32.211Z,84.29
2022-10-21T15:56:02.217Z,84.48
2022-10-21T15:58:32.194Z,84.88
2022-10-21T16:01:00.482Z,84.58
2022-10-21T16:03:29.347Z,84.63
2022-10-21T16:05:58.030Z,84.72
2022-10-21T16:08:26.130Z,84.73
2022-10-21T16:10:54.877Z,84.77
2022-10-21T16:13:23.142Z,84.54
2022-10-21T16:15:52.790Z,84.72
2022-10-21T16:18:20.878Z,84.48
2022-10-21T16:20:55.103Z,84.48
2022-10-21T16:23:23.194Z,84.35
2022-10-21T16:25:51.373Z,84.54
2022-10-21T16:28:19.484Z,84.62
2022-10-21T16:30:47.570Z,84.56
2022-10-21T16:33:17.165Z,84.39
2022-10-21T16:35:48.562Z,84.26
2022-10-21T16:38:16.786Z,84.50
2022-10-21T16:40:45.055Z,84.30
2022-10-21T16:43:14.579Z,84.74
2022-10-21T16:45:44.120Z,84.81
2022-10-21T16:48:12.336Z,84.44
2022-10-21T16:50:47.033Z,84.69
2022-10-21T16:53:17.580Z,84.96
2022-10-21T16:55:46.048Z,85.12
2022-10-21T16:58:14.324Z,85.14
2022-10-21T17:00:42.551Z,85.00
2022-10-21T17:03:12.578Z,85.28
2022-10-21T17:05:42.125Z,85.33
2022-10-21T17:08:10.279Z,85.56
2022-10-21T17:10:38.485Z,85.39
2022-10-21T17:13:06.602Z,85.48
2022-10-21T17:15:34.689Z,85.64
2022-10-21T17:18:02.881Z,86.04
2022-10-21T17:20:32.754Z,86.23
2022-10-21T17:23:02.801Z,86.58
2022-10-21T17:25:34.237Z,86.68
2022-10-21T17:28:02.419Z,87.37
2022-10-21T17:30:30.611Z,87.36
2022-10-21T17:32:58.977Z,87.49
2022-10-21T17:35:27.089Z,87.91
2022-10-21T17:37:55.360Z,88.11
2022-10-21T17:40:27.751Z,88.37
2022-10-21T17:42:56.215Z,88.56
2022-10-21T17:45:24.309Z,88.75
2022-10-21T17:47:53.297Z,88.85
2022-10-21T17:50:24.377Z,88.98
2022-10-21T17:52:55.483Z,89.26
2022-10-21T17:55:25.056Z,89.50
2022-10-21T17:57:53.167Z,89.86
2022-10-21T18:00:21.577Z,89.89
2022-10-21T18:02:49.838Z,90.00
2022-10-21T18:05:18.367Z,89.91
2022-10-21T18:07:46.486Z,90.24
2022-10-21T18:10:14.627Z,90.43
2022-10-21T18:12:44.082Z,90.51
2022-10-21T18:15:12.771Z,90.40
2022-10-21T18:17:41.403Z,90.60
2022-10-21T18:20:11.209Z,90.80
2022-10-21T18:22:39.579Z,90.92
2022-10-21T18:25:16.869Z,91.30
2022-10-21T18:27:46.367Z,91.31
2022-10-21T18:30:32.225Z,91.39
2022-10-21T18:33:11.534Z,91.57
2022-10-21T18:35:40.426Z,91.84
2022-10-21T18:38:08.595Z,91.87
2022-10-21T18:40:43.732Z,91.82
2022-10-21T18:43:24.550Z,91.55
2022-10-21T18:45:58.730Z,92.19
2022-10-21T18:48:27.120Z,92.10
2022-10-21T18:50:58.802Z,92.32
2022-10-21T18:59:27.973Z,92.58
2022-10-21T19:02:04.372Z,92.46
2022-10-21T19:04:38.772Z,92.84
2022-10-21T19:07:21.273Z,92.62
2022-10-21T19:10:04.599Z,92.77
2022-10-21T19:16:11.620Z,92.90
2022-10-21T19:19:02.726Z,93.28
2022-10-21T19:21:33.393Z,93.33
2022-10-21T19:24:33.594Z,93.60
2022-10-21T19:27:35.707Z,93.72
2022-10-21T19:30:34.817Z,93.53
2022-10-21T19:33:19.311Z,93.86
2022-10-21T19:41:41.600Z,94.01
2022-10-21T19:47:53.821Z,94.25
2022-10-21T19:50:36.044Z,94.56
2022-10-21T19:53:11.659Z,94.76
2022-10-21T19:55:48.374Z,94.71
2022-10-21T19:58:39.038Z,94.52
2022-10-21T20:01:27.923Z,95.47
2022-10-21T20:04:06.634Z,94.86
2022-10-21T20:10:12.361Z,95.19
2022-10-21T20:12:51.034Z,95.38
2022-10-21T20:15:32.939Z,95.36
2022-10-21T20:18:19.671Z,95.37
2022-10-21T20:21:13.085Z,95.74
2022-10-21T20:23:50.959Z,95.44
2022-10-21T20:26:44.811Z,95.56
2022-10-21T20:29:32.022Z,95.34
2022-10-21T20:32:09.350Z,95.71
2022-10-21T20:34:58.066Z,96.02
2022-10-21T20:37:38.241Z,95.86
2022-10-21T20:43:33.486Z,95.92
2022-10-21T20:46:21.740Z,95.80
2022-10-21T20:49:01.438Z,96.16
2022-10-21T20:51:42.008Z,95.85
2022-10-21T20:54:18.512Z,95.97
2022-10-21T20:57:02.123Z,95.74
2022-10-21T20:59:47.333Z,95.94
2022-10-21T21:02:30.163Z,95.63
2022-10-21T21:05:29.725Z,96.06
2022-10-21T21:08:02.406Z,95.84
2022-10-21T21:10:34.434Z,96.16
2022-10-21T21:13:25.985Z,96.29
2022-10-21T21:16:22.826Z,95.94
2022-10-21T21:19:00.455Z,96.15
2022-10-21T21:21:35.689Z,96.22
2022-10-21T21:24:11.407Z,96.35
2022-10-21T21:27:16.646Z,96.08
2022-10-21T21:30:00.500Z,96.01
2022-10-21T21:38:29.756Z,96.40
2022-10-21T21:41:09.746Z,95.84
2022-10-21T21:46:48.426Z,96.49
2022-10-21T21:49:28.089Z,96.40
2022-10-21T21:52:10.592Z,96.56
2022-10-21T21:54:43.209Z,96.49
2022-10-21T21:57:27.721Z,96.08
2022-10-21T22:00:02.232Z,96.71
2022-10-21T22:02:45.566Z,96.18
2022-10-21T22:05:16.037Z,96.50
2022-10-21T22:07:57.341Z,96.36
2022-10-21T22:10:31.296Z,96.50
2022-10-21T22:13:06.769Z,96.29
2022-10-21T22:15:53.371Z,96.51
2022-10-21T22:18:36.100Z,96.66
2022-10-21T22:21:13.046Z,97.08
2022-10-21T22:23:50.319Z,97.23
2022-10-21T22:26:30.894Z,96.79
2022-10-21T22:29:09.107Z,96.74
2022-10-21T22:31:52.632Z,97.10
2022-10-21T22:34:32.216Z,97.10
2022-10-21T22:37:11.182Z,96.79
2022-10-21T22:39:46.233Z,96.50
2022-10-21T22:42:24.684Z,96.75
2022-10-21T22:44:56.151Z,96.97
2022-10-21T22:47:30.772Z,97.08
2022-10-21T22:50:16.755Z,96.64
2022-10-21T22:52:50.312Z,96.90
2022-10-21T22:55:23.096Z,97.37
2022-10-21T22:58:05.520Z,97.45
2022-10-21T23:03:25.938Z,97.60
2022-10-21T23:06:11.376Z,97.88
2022-10-21T23:08:50.801Z,97.84
2022-10-21T23:11:38.504Z,98.06
2022-10-21T23:14:13.454Z,98.28
2022-10-21T23:19:42.471Z,97.73
2022-10-21T23:22:29.248Z,97.71
2022-10-21T23:25:04.969Z,97.85
2022-10-21T23:30:51.657Z,97.72
2022-10-21T23:34:00.437Z,97.87
2022-10-21T23:36:48.217Z,98.10
2022-10-21T23:42:43.194Z,97.49
2022-10-21T23:45:21.757Z,97.85
2022-10-21T23:47:58.488Z,97.84
2022-10-21T23:50:31.963Z,97.46
2022-10-21T23:53:06.150Z,97.54
2022-10-21T23:55:55.474Z,97.12
2022-10-21T23:58:27.619Z,97.63
